Time;durP1;ratioP1;P1;durP2;ratioP2;P2;SDS_P1;SDS_P2;PMS_P1;PMS_P2;Temp;Humidity;BMP_temperature;BMP_pressure;BME280_temperature;BME280_humidity;BME280_pressure;Samples;Min_cycle;Max_cycle;Signal;HPM_P1;HPM_P2
2023/01/05 00:02:23;;;;;;;21.13;6.25;;;9.90;99.90;;;;;;5002049;28;89371;-33
2023/01/05 00:04:49;;;;;;;25.50;5.68;;;9.80;99.90;;;;;;5001726;28;89566;-34
2023/01/05 00:07:15;;;;;;;11.05;5.03;;;9.80;99.90;;;;;;5001275;28;88994;-32
2023/01/05 00:09:40;;;;;;;13.43;5.57;;;9.80;99.90;;;;;;5001484;28;89728;-35
2023/01/05 00:23:05;;;;;;;18.13;5.70;;;9.90;99.90;;;;;;5001923;28;89965;-32
2023/01/05 00:25:35;;;;;;;18.45;5.18;;;9.90;99.90;;;;;;5001497;28;89446;-34
2023/01/05 00:28:00;;;;;;;14.05;5.28;;;9.90;99.90;;;;;;5002036;28;90597;-32
2023/01/05 00:30:39;;;;;;;18.45;5.55;;;9.90;99.90;;;;;;5001540;28;90057;-35
2023/01/05 00:33:09;;;;;;;20.45;5.80;;;9.80;99.90;;;;;;5001203;28;89683;-34
2023/01/05 00:35:35;;;;;;;19.50;5.95;;;9.80;99.90;;;;;;5000875;28;89457;-33
2023/01/05 00:38:01;;;;;;;20.50;5.38;;;9.80;99.90;;;;;;5000885;28;89843;-33
2023/01/05 00:40:26;;;;;;;14.60;6.47;;;9.70;99.90;;;;;;5000737;28;90377;-32
2023/01/05 00:42:52;;;;;;;16.88;5.53;;;9.70;99.90;;;;;;5001424;28;88040;-32
2023/01/05 00:45:18;;;;;;;23.83;5.85;;;9.70;99.90;;;;;;5000635;28;89514;-31
2023/01/05 00:47:44;;;;;;;21.15;6.63;;;9.70;99.90;;;;;;5001653;28;88526;-33
2023/01/05 00:50:13;;;;;;;25.75;6.63;;;9.60;99.90;;;;;;5001066;28;89776;-32
2023/01/05 00:52:39;;;;;;;25.85;7.78;;;9.60;99.90;;;;;;4999215;28;90509;-34
2023/01/05 00:55:05;;;;;;;16.88;6.07;;;9.60;99.90;;;;;;5000996;28;89623;-32
2023/01/05 00:57:30;;;;;;;19.65;6.72;;;9.70;99.90;;;;;;5001399;28;88601;-33
2023/01/05 00:59:56;;;;;;;18.50;6.47;;;9.70;99.90;;;;;;5000446;28;90256;-32
2023/01/05 01:02:22;;;;;;;15.48;5.95;;;9.70;99.90;;;;;;4996849;28;90998;-32
2023/01/05 01:04:47;;;;;;;28.15;6.13;;;9.70;99.90;;;;;;5000413;28;90105;-33
2023/01/05 01:07:13;;;;;;;18.13;5.43;;;9.70;99.90;;;;;;5000838;28;89136;-35
2023/01/05 01:09:40;;;;;;;23.55;5.90;;;9.70;99.90;;;;;;5000623;28;89522;-35
2023/01/05 01:12:06;;;;;;;20.55;5.97;;;9.70;99.90;;;;;;5000544;28;89774;-32
2023/01/05 01:14:31;;;;;;;17.85;5.32;;;9.70;99.90;;;;;;5000538;28;89691;-35
2023/01/05 01:16:57;;;;;;;18.23;5.47;;;9.70;99.90;;;;;;5000641;28;88965;-33
2023/01/05 01:19:25;;;;;;;21.98;5.68;;;9.80;99.90;;;;;;5000019;28;90344;-35
2023/01/05 01:21:51;;;;;;;15.88;6.90;;;9.80;99.90;;;;;;5000443;28;90376;-33
2023/01/05 01:24:20;;;;;;;21.48;5.95;;;9.80;99.90;;;;;;4999496;28;89819;-35
2023/01/05 01:26:46;;;;;;;36.47;7.82;;;9.70;99.90;;;;;;4999421;28;89639;-33
2023/01/05 01:29:12;;;;;;;25.42;7.30;;;9.70;99.90;;;;;;5000675;28;90433;-34
2023/01/05 01:31:38;;;;;;;32.55;6.80;;;9.70;99.90;;;;;;5000403;28;91161;-32
2023/01/05 01:34:04;;;;;;;21.38;5.25;;;9.80;99.90;;;;;;4999687;28;89222;-33
2023/01/05 01:36:29;;;;;;;18.73;5.75;;;9.80;99.90;;;;;;5000122;28;88759;-32
2023/01/05 01:38:55;;;;;;;13.00;4.88;;;9.80;99.90;;;;;;4999418;28;90383;-32
2023/01/05 01:41:21;;;;;;;25.92;7.32;;;9.70;99.90;;;;;;5000500;28;89603;-35
2023/01/05 01:43:49;;;;;;;20.05;5.53;;;9.70;99.90;;;;;;5000083;28;89540;-35
2023/01/05 01:46:17;;;;;;;16.73;5.93;;;9.70;99.90;;;;;;4999793;28;89308;-34
2023/01/05 01:48:58;;;;;;;22.83;6.88;;;9.60;99.90;;;;;;4999388;28;89318;-32
2023/01/05 01:51:43;;;;;;;15.73;5.68;;;9.70;99.90;;;;;;5000174;28;90123;-32
2023/01/05 01:54:12;;;;;;;23.85;6.90;;;9.80;99.90;;;;;;4988395;28;90504;-35
2023/01/05 01:56:44;;;;;;;17.73;6.28;;;9.80;99.90;;;;;;5000100;28;88878;-32
2023/01/05 01:59:10;;;;;;;25.95;5.45;;;9.80;99.90;;;;;;4998919;28;90137;-32
2023/01/05 02:01:36;;;;;;;16.25;6.00;;;9.80;99.90;;;;;;4999489;28;90051;-33
2023/01/05 02:04:03;;;;;;;21.25;6.80;;;9.80;99.90;;;;;;4999316;28;90018;-34
2023/01/05 02:06:29;;;;;;;24.13;6.85;;;9.80;99.90;;;;;;4999841;28;87686;-31
2023/01/05 02:08:55;;;;;;;15.38;5.65;;;9.80;99.90;;;;;;5000147;28;90593;-35
2023/01/05 02:11:42;;;;;;;23.60;7.38;;;9.80;99.90;;;;;;4985832;28;91274;-34
2023/01/05 02:14:17;;;;;;;25.20;6.50;;;9.90;99.90;;;;;;4999651;28;88602;-32
2023/01/05 02:17:04;;;;;;;17.75;6.40;;;9.90;99.90;;;;;;4999606;28;89149;-32
2023/01/05 02:19:56;;;;;;;16.42;5.80;;;9.90;99.90;;;;;;4999716;28;89791;-34
2023/01/05 02:22:53;;;;;;;23.67;7.35;;;9.80;99.90;;;;;;4998804;28;89117;-33
2023/01/05 02:25:46;;;;;;;12.95;5.75;;;9.80;99.90;;;;;;4997572;28;89706;-32
2023/01/05 02:28:36;;;;;;;18.58;5.60;;;9.90;99.90;;;;;;5000191;28;87617;-32
2023/01/05 02:31:26;;;;;;;22.90;6.15;;;9.90;99.90;;;;;;4999808;28;90224;-34
2023/01/05 02:34:13;;;;;;;16.02;5.18;;;9.80;99.90;;;;;;4989136;28;89374;-32
2023/01/05 02:36:52;;;;;;;22.55;6.20;;;9.90;99.90;;;;;;4998901;28;89707;-33
2023/01/05 02:39:41;;;;;;;16.65;6.25;;;9.90;99.90;;;;;;4999588;28;89024;-31
2023/01/05 02:42:12;;;;;;;20.88;6.13;;;9.80;99.90;;;;;;4987165;28;90142;-32
2023/01/05 02:44:38;;;;;;;28.08;6.05;;;9.80;99.90;;;;;;4997953;28;90572;-35
2023/01/05 02:47:05;;;;;;;18.15;4.78;;;9.80;99.90;;;;;;4999509;28;90630;-32
2023/01/05 02:49:36;;;;;;;18.53;5.63;;;9.80;99.90;;;;;;4998702;28;88814;-34
2023/01/05 02:52:03;;;;;;;22.60;5.45;;;9.80;99.90;;;;;;4999491;28;90041;-32
2023/01/05 02:54:45;;;;;;;21.03;4.60;;;9.80;99.90;;;;;;4999254;28;89696;-32
2023/01/05 02:57:19;;;;;;;27.05;7.93;;;9.80;99.90;;;;;;4999165;28;89955;-33
2023/01/05 02:59:53;;;;;;;11.18;4.60;;;9.80;99.90;;;;;;4998768;28;89091;-33
2023/01/05 03:02:26;;;;;;;20.30;5.18;;;9.80;99.90;;;;;;4998757;28;91971;-34
2023/01/05 03:05:03;;;;;;;27.25;7.03;;;9.90;99.90;;;;;;4999193;28;90603;-32
2023/01/05 03:07:33;;;;;;;24.58;6.25;;;9.80;99.90;;;;;;4999726;28;90075;-32
2023/01/05 03:13:39;;;;;;;21.38;5.22;;;9.80;99.90;;;;;;4999022;28;88958;-35
2023/01/05 03:15:35;;;;;;;20.00;5.80;;;9.70;99.90;;;;;;4999542;28;90717;-33
2023/01/05 03:18:08;;;;;;;20.25;5.45;;;9.70;99.90;;;;;;5002243;28;89562;-35
2023/01/05 03:20:37;;;;;;;13.30;5.13;;;9.70;99.90;;;;;;5003036;28;88253;-32
2023/01/05 03:37:17;;;;;;;22.10;6.97;;;9.70;99.90;;;;;;4988916;28;91005;-33
2023/01/05 03:39:44;;;;;;;17.88;6.07;;;9.70;99.90;;;;;;5001482;28;92105;-34
2023/01/05 03:42:11;;;;;;;21.67;5.28;;;9.80;99.90;;;;;;5002422;28;89484;-34
2023/01/05 03:44:38;;;;;;;21.70;6.05;;;9.70;99.90;;;;;;5001934;28;90528;-36
2023/01/05 03:47:05;;;;;;;14.48;5.53;;;9.60;99.90;;;;;;5002810;28;90016;-32
2023/01/05 03:49:30;;;;;;;16.95;6.57;;;9.60;99.90;;;;;;5001237;28;89177;-32
2023/01/05 03:51:56;;;;;;;20.45;6.53;;;9.70;99.90;;;;;;5001961;28;89410;-32
2023/01/05 03:54:22;;;;;;;24.23;6.50;;;9.70;99.90;;;;;;5001998;28;90160;-32
2023/01/05 03:56:47;;;;;;;12.82;5.45;;;9.70;99.90;;;;;;5001743;28;89986;-33
2023/01/05 03:59:13;;;;;;;20.50;6.60;;;9.70;99.90;;;;;;5000739;28;89672;-33
2023/01/05 04:01:39;;;;;;;21.90;5.53;;;9.70;99.90;;;;;;5000874;28;90722;-32
2023/01/05 04:04:04;;;;;;;17.40;5.18;;;9.70;99.90;;;;;;5002012;28;90505;-32
2023/01/05 04:06:30;;;;;;;16.73;5.72;;;9.70;99.90;;;;;;5001745;28;88991;-34
2023/01/05 04:08:55;;;;;;;19.95;6.55;;;9.80;99.90;;;;;;5002230;28;90388;-35
2023/01/05 04:11:23;;;;;;;22.85;6.35;;;9.80;99.90;;;;;;5001948;28;87805;-34
2023/01/05 04:13:49;;;;;;;22.97;7.40;;;9.70;99.90;;;;;;5000887;28;90163;-33
2023/01/05 04:16:15;;;;;;;16.98;5.50;;;9.70;99.90;;;;;;5001531;28;89507;-35
2023/01/05 04:18:41;;;;;;;20.02;6.15;;;9.70;99.90;;;;;;5001972;28;90858;-34
2023/01/05 04:21:07;;;;;;;16.05;5.43;;;9.80;99.90;;;;;;5001813;28;89262;-34
2023/01/05 04:23:33;;;;;;;16.60;5.75;;;9.70;99.90;;;;;;5002127;28;90251;-34
2023/01/05 04:25:58;;;;;;;20.70;6.35;;;9.70;99.90;;;;;;5000115;28;93984;-31
2023/01/05 04:28:24;;;;;;;25.42;6.45;;;9.70;99.90;;;;;;5001750;28;90448;-32
2023/01/05 04:30:52;;;;;;;16.80;6.15;;;9.80;99.90;;;;;;5001782;28;89008;-34
2023/01/05 04:33:19;;;;;;;16.60;5.25;;;9.70;99.90;;;;;;5001715;28;89357;-34
2023/01/05 04:35:45;;;;;;;22.30;6.70;;;9.70;99.90;;;;;;5000897;28;89804;-33
2023/01/05 04:38:11;;;;;;;21.88;5.57;;;9.70;99.90;;;;;;5001220;28;89495;-33
2023/01/05 04:40:37;;;;;;;16.92;6.35;;;9.70;99.90;;;;;;5000600;28;88341;-32
2023/01/05 04:43:03;;;;;;;27.65;6.97;;;9.80;99.90;;;;;;4988137;28;91173;-32
2023/01/05 04:45:29;;;;;;;14.70;5.03;;;9.80;99.90;;;;;;5001050;28;89770;-34
2023/01/05 04:47:54;;;;;;;19.00;4.72;;;9.80;99.90;;;;;;5000113;28;89814;-33
2023/01/05 04:50:21;;;;;;;22.45;6.38;;;9.80;99.90;;;;;;5001537;28;90831;-32
2023/01/05 04:52:47;;;;;;;25.08;6.60;;;9.90;99.90;;;;;;5000826;28;90054;-32
2023/01/05 04:55:12;;;;;;;13.82;5.45;;;9.90;99.90;;;;;;5001232;28;89672;-35
2023/01/05 04:57:38;;;;;;;22.52;5.78;;;9.80;99.90;;;;;;5001021;28;90092;-37
2023/01/05 05:00:05;;;;;;;23.10;7.07;;;9.90;99.90;;;;;;5000812;28;89275;-34
2023/01/05 05:02:31;;;;;;;17.77;5.55;;;9.90;99.90;;;;;;5001233;28;90435;-33
2023/01/05 05:04:57;;;;;;;20.92;6.88;;;9.80;99.90;;;;;;5000038;28;90043;-34
2023/01/05 05:07:22;;;;;;;15.75;5.65;;;9.80;99.90;;;;;;5000590;28;89490;-34
2023/01/05 05:09:48;;;;;;;24.20;6.20;;;9.80;99.90;;;;;;5000791;28;88952;-33
2023/01/05 05:12:14;;;;;;;22.58;6.75;;;9.90;99.90;;;;;;5000259;28;90238;-35
2023/01/05 05:14:40;;;;;;;20.55;6.10;;;9.90;99.90;;;;;;4999913;28;90582;-32
2023/01/05 05:17:06;;;;;;;30.88;6.38;;;9.90;99.90;;;;;;5000816;28;89468;-33
2023/01/05 05:19:31;;;;;;;13.32;6.50;;;9.90;99.90;;;;;;5001647;28;89357;-35
2023/01/05 05:21:57;;;;;;;11.60;4.95;;;9.90;99.90;;;;;;5000568;28;90590;-34
2023/01/05 05:24:23;;;;;;;16.75;5.68;;;9.90;99.90;;;;;;5000182;28;90129;-33
2023/01/05 05:26:48;;;;;;;9.85;4.90;;;9.90;99.90;;;;;;4982774;28;89686;-32
2023/01/05 05:29:14;;;;;;;23.67;5.45;;;9.90;99.90;;;;;;5000837;28;88585;-34
2023/01/05 05:31:39;;;;;;;14.40;5.10;;;9.90;99.90;;;;;;5001263;28;90331;-34
2023/01/05 05:34:05;;;;;;;19.05;5.72;;;9.90;99.90;;;;;;5000231;28;89651;-35
2023/01/05 05:36:31;;;;;;;23.45;6.30;;;10.00;99.90;;;;;;4999231;28;90580;-34
2023/01/05 05:38:57;;;;;;;16.83;5.80;;;9.90;99.90;;;;;;4999087;28;90228;-33
2023/01/05 05:41:24;;;;;;;8.93;5.25;;;9.90;99.90;;;;;;4999895;28;90605;-32
2023/01/05 05:43:50;;;;;;;18.30;5.70;;;9.90;99.90;;;;;;5000789;28;90244;-33
2023/01/05 05:46:15;;;;;;;20.63;6.22;;;9.90;99.90;;;;;;5000141;28;89224;-31
2023/01/05 05:48:41;;;;;;;19.75;7.03;;;9.80;99.90;;;;;;5000287;28;88491;-33
2023/01/05 05:51:06;;;;;;;19.27;5.40;;;9.80;99.90;;;;;;5000448;28;90215;-33
2023/01/05 05:53:32;;;;;;;18.40;5.90;;;9.80;99.90;;;;;;5000059;28;89428;-32
2023/01/05 05:55:58;;;;;;;15.00;5.18;;;9.80;99.90;;;;;;5000453;28;89887;-34
2023/01/05 05:58:23;;;;;;;18.67;6.28;;;9.80;99.90;;;;;;5000541;28;89321;-32
2023/01/05 06:00:49;;;;;;;17.17;6.18;;;9.90;99.90;;;;;;4999475;28;89903;-35
2023/01/05 06:03:15;;;;;;;19.88;5.63;;;9.90;99.90;;;;;;4999598;28;91361;-35
2023/01/05 06:05:40;;;;;;;14.88;6.10;;;9.90;99.90;;;;;;4999728;28;90126;-35
2023/01/05 06:08:06;;;;;;;15.38;5.50;;;9.80;99.90;;;;;;5000419;28;88273;-33
2023/01/05 06:10:32;;;;;;;30.65;7.15;;;9.80;99.90;;;;;;4999679;28;90001;-31
2023/01/05 06:12:57;;;;;;;20.23;6.18;;;9.80;99.90;;;;;;5000427;28;88440;-33
2023/01/05 06:15:23;;;;;;;16.52;5.47;;;9.80;99.90;;;;;;4999696;28;90084;-32
2023/01/05 06:17:49;;;;;;;14.45;6.40;;;9.90;99.90;;;;;;5000078;28;88426;-33
2023/01/05 06:20:16;;;;;;;17.13;5.78;;;9.90;99.90;;;;;;5000329;28;90717;-33
2023/01/05 06:22:42;;;;;;;22.75;8.05;;;9.90;99.90;;;;;;4999214;28;90177;-32
2023/01/05 06:25:09;;;;;;;23.33;6.55;;;9.90;99.90;;;;;;4999030;28;89105;-33
2023/01/05 06:27:34;;;;;;;22.52;6.07;;;9.90;99.90;;;;;;4999812;28;90256;-33
2023/01/05 06:30:00;;;;;;;22.38;4.43;;;9.90;99.90;;;;;;4998933;28;91360;-31
2023/01/05 06:32:26;;;;;;;19.17;6.30;;;9.90;99.90;;;;;;5000067;28;89981;-35
2023/01/05 06:34:51;;;;;;;12.45;4.47;;;9.80;99.90;;;;;;4998856;28;89411;-32
2023/01/05 06:37:17;;;;;;;20.05;6.45;;;9.90;99.90;;;;;;4999204;28;90152;-33
2023/01/05 06:39:43;;;;;;;18.73;5.38;;;9.80;99.90;;;;;;4999142;28;89349;-33
2023/01/05 06:42:09;;;;;;;16.67;5.97;;;9.80;99.90;;;;;;4999382;28;90106;-35
2023/01/05 06:44:34;;;;;;;22.45;6.25;;;9.70;99.90;;;;;;5000245;28;89945;-33
2023/01/05 06:47:00;;;;;;;20.52;5.20;;;9.70;99.90;;;;;;4999356;28;89219;-32
2023/01/05 06:49:26;;;;;;;17.10;6.07;;;9.80;99.90;;;;;;4999002;28;89698;-34
2023/01/05 06:51:51;;;;;;;16.20;6.03;;;9.70;99.90;;;;;;4997515;28;90317;-32
2023/01/05 06:54:17;;;;;;;24.25;6.65;;;9.70;99.90;;;;;;4999564;28;91139;-33
2023/01/05 06:56:43;;;;;;;14.30;5.90;;;9.60;99.90;;;;;;4999688;28;88500;-32
2023/01/05 06:59:11;;;;;;;17.58;5.50;;;9.60;99.90;;;;;;4998685;28;90570;-33
2023/01/05 07:01:36;;;;;;;29.40;6.97;;;9.50;99.90;;;;;;4999329;28;89232;-32
2023/01/05 07:04:02;;;;;;;17.85;6.20;;;9.50;99.90;;;;;;4999774;28;90496;-32
2023/01/05 07:06:28;;;;;;;21.42;6.10;;;9.50;99.90;;;;;;4998258;28;88481;-33
2023/01/05 07:08:53;;;;;;;17.08;5.57;;;9.50;99.90;;;;;;4999683;28;90561;-33
2023/01/05 07:11:19;;;;;;;19.10;5.93;;;9.50;99.90;;;;;;4998411;28;89767;-33
2023/01/05 07:13:49;;;;;;;24.48;6.15;;;9.50;99.90;;;;;;4999378;28;89468;-32
2023/01/05 07:16:15;;;;;;;15.38;5.20;;;9.50;99.90;;;;;;4998860;28;89182;-34
2023/01/05 07:18:41;;;;;;;12.82;5.55;;;9.50;99.90;;;;;;4998598;28;92034;-32
2023/01/05 07:21:06;;;;;;;20.25;6.80;;;9.50;99.90;;;;;;4998764;28;90516;-32
2023/01/05 07:23:32;;;;;;;18.38;5.20;;;9.50;99.90;;;;;;4999338;28;89507;-34
2023/01/05 07:26:01;;;;;;;13.98;5.18;;;9.50;99.90;;;;;;4999205;28;89322;-32
2023/01/05 07:28:26;;;;;;;12.25;4.15;;;9.50;99.90;;;;;;4998575;28;90119;-34
2023/01/05 07:30:52;;;;;;;17.17;6.18;;;9.50;99.90;;;;;;4998338;28;89364;-33
2023/01/05 07:33:18;;;;;;;10.90;5.03;;;9.50;99.90;;;;;;4998845;28;89762;-32
2023/01/05 07:35:43;;;;;;;25.95;6.85;;;9.50;99.90;;;;;;4999383;28;89631;-32
2023/01/05 07:38:09;;;;;;;20.02;6.43;;;9.50;99.90;;;;;;4998785;28;90493;-33
2023/01/05 07:40:35;;;;;;;16.45;6.07;;;9.50;99.90;;;;;;4996654;28;90923;-35
2023/01/05 07:43:01;;;;;;;18.27;6.30;;;9.50;99.90;;;;;;4999233;28;89484;-31
2023/01/05 07:45:26;;;;;;;12.23;5.32;;;9.50;99.90;;;;;;4995614;28;88432;-34
2023/01/05 07:47:52;;;;;;;24.40;6.10;;;9.50;99.90;;;;;;4998654;28;90795;-33
2023/01/05 07:50:17;;;;;;;12.77;4.72;;;9.50;99.90;;;;;;4996788;28;89906;-34
2023/01/05 07:52:43;;;;;;;18.92;5.82;;;9.50;99.90;;;;;;4997539;28;88951;-33
2023/01/05 07:55:09;;;;;;;15.50;5.88;;;9.50;99.90;;;;;;4996097;28;89934;-35
2023/01/05 07:57:35;;;;;;;21.23;6.00;;;9.50;99.90;;;;;;4997763;28;90417;-36
2023/01/05 08:00:01;;;;;;;19.17;6.22;;;9.50;99.90;;;;;;4997563;28;89065;-33
2023/01/05 08:02:26;;;;;;;10.73;5.43;;;9.50;99.90;;;;;;5000097;28;89315;-34
2023/01/05 08:04:52;;;;;;;22.38;6.07;;;9.50;99.90;;;;;;5000685;28;88884;-35
2023/01/05 08:07:18;;;;;;;17.40;5.50;;;9.50;99.90;;;;;;5000810;28;90225;-32
2023/01/05 08:12:29;;;;;;;18.48;5.88;;;9.50;99.90;;;;;;5002187;28;89781;-32
2023/01/05 08:14:55;;;;;;;20.23;5.45;;;9.50;99.90;;;;;;5000724;28;88909;-33
2023/01/05 08:17:21;;;;;;;20.33;5.93;;;9.50;99.90;;;;;;5000134;28;90951;-32
2023/01/05 08:19:46;;;;;;;19.10;5.32;;;9.50;99.90;;;;;;5000815;28;89892;-34
2023/01/05 08:22:12;;;;;;;14.73;6.22;;;9.50;99.90;;;;;;5000923;28;89438;-32
2023/01/05 08:24:38;;;;;;;18.15;6.65;;;9.60;99.90;;;;;;5001467;28;89590;-33
2023/01/05 08:27:04;;;;;;;13.52;5.20;;;9.60;99.90;;;;;;5000528;28;90199;-32
2023/01/05 08:29:29;;;;;;;14.77;5.28;;;9.50;99.90;;;;;;5000646;28;90781;-32
2023/01/05 08:31:55;;;;;;;18.23;4.15;;;9.60;99.90;;;;;;5000529;28;90292;-33
2023/01/05 08:34:21;;;;;;;17.65;5.78;;;9.60;99.90;;;;;;5001322;28;88806;-35
2023/01/05 08:36:46;;;;;;;12.38;4.95;;;9.60;99.90;;;;;;5000863;28;90587;-35
2023/01/05 08:39:12;;;;;;;9.40;4.82;;;9.60;99.90;;;;;;5000367;28;89749;-32
2023/01/05 08:41:39;;;;;;;10.57;4.95;;;9.60;99.90;;;;;;5000034;28;89211;-32
2023/01/05 08:44:14;;;;;;;11.35;4.60;;;9.60;99.90;;;;;;4994940;28;88286;-34
2023/01/05 08:46:40;;;;;;;12.93;5.07;;;9.70;99.90;;;;;;4999943;28;89687;-33
2023/01/05 08:49:08;;;;;;;13.57;5.05;;;9.70;99.90;;;;;;5001862;28;89586;-33
2023/01/05 08:51:34;;;;;;;10.30;4.55;;;9.70;99.90;;;;;;4995772;28;89909;-33
2023/01/05 08:53:59;;;;;;;14.25;6.13;;;9.70;99.90;;;;;;5000294;28;88030;-33
2023/01/05 08:56:26;;;;;;;25.27;5.70;;;9.70;99.90;;;;;;5000706;28;90262;-33
2023/01/05 08:58:54;;;;;;;20.70;5.72;;;9.70;99.90;;;;;;5000451;28;87937;-35
2023/01/05 09:01:23;;;;;;;15.43;4.20;;;9.60;99.90;;;;;;5000212;28;89829;-32
2023/01/05 09:03:49;;;;;;;15.15;4.78;;;9.70;99.90;;;;;;5001009;28;88194;-34
2023/01/05 09:06:14;;;;;;;7.15;4.28;;;9.70;99.90;;;;;;4999590;28;90323;-33
2023/01/05 09:08:41;;;;;;;19.83;5.20;;;9.70;99.90;;;;;;4999185;28;89799;-33
2023/01/05 09:11:19;;;;;;;12.63;3.45;;;9.70;99.90;;;;;;4997029;28;90227;-34
2023/01/05 09:13:47;;;;;;;15.82;5.20;;;9.80;99.90;;;;;;4996637;28;87961;-32
2023/01/05 09:16:15;;;;;;;21.17;5.30;;;9.80;99.90;;;;;;5000062;28;89393;-34
2023/01/05 09:18:42;;;;;;;13.07;4.90;;;9.70;99.90;;;;;;4999231;28;91641;-33
2023/01/05 09:21:08;;;;;;;16.67;5.57;;;9.70;99.90;;;;;;4999316;28;89990;-32
2023/01/05 09:23:35;;;;;;;9.50;5.05;;;9.70;99.90;;;;;;5000800;28;89460;-35
2023/01/05 09:26:05;;;;;;;17.00;5.07;;;9.80;99.90;;;;;;4996875;28;89296;-31
2023/01/05 09:28:31;;;;;;;14.57;5.38;;;9.70;99.90;;;;;;5000685;28;89195;-34
2023/01/05 09:30:57;;;;;;;18.85;5.05;;;9.70;99.90;;;;;;5000075;28;89465;-35
2023/01/05 09:33:23;;;;;;;18.73;5.50;;;9.70;99.90;;;;;;5000832;28;88778;-33
2023/01/05 09:35:56;;;;;;;20.20;5.30;;;9.70;99.90;;;;;;4999845;28;90222;-33
2023/01/05 09:38:22;;;;;;;21.05;5.10;;;9.70;99.90;;;;;;5034356;22;89794;-35
2023/01/05 09:40:54;;;;;;;14.88;4.80;;;9.70;99.90;;;;;;5001013;28;87929;-32
2023/01/05 09:43:40;;;;;;;10.35;4.35;;;9.80;99.90;;;;;;5000254;28;90400;-33
2023/01/05 09:46:12;;;;;;;19.17;6.25;;;9.70;99.90;;;;;;5000214;28;90032;-32
2023/01/05 09:48:44;;;;;;;20.83;5.68;;;9.70;99.90;;;;;;4996529;28;89530;-33
2023/01/05 09:51:11;;;;;;;14.43;4.85;;;9.70;99.90;;;;;;4999830;28;89704;-33
2023/01/05 09:53:38;;;;;;;18.15;4.85;;;9.70;99.90;;;;;;4999923;28;89372;-33
2023/01/05 09:56:05;;;;;;;17.20;5.45;;;9.80;99.90;;;;;;4998392;28;90433;-32
2023/01/05 09:58:41;;;;;;;20.85;4.68;;;9.80;99.90;;;;;;4995014;28;88620;-34
2023/01/05 10:01:13;;;;;;;19.45;5.25;;;9.80;99.90;;;;;;4996363;28;90164;-34
2023/01/05 10:03:54;;;;;;;24.60;6.05;;;9.80;99.90;;;;;;4988025;28;89568;-33
2023/01/05 10:06:24;;;;;;;17.52;4.75;;;9.80;99.90;;;;;;4992120;28;90497;-33
2023/01/05 10:08:50;;;;;;;20.92;5.57;;;9.90;99.90;;;;;;4970621;28;90551;-34
2023/01/05 10:14:40;;;;;;;14.07;5.75;;;9.90;99.90;;;;;;4996683;28;88497;-33
2023/01/05 10:17:14;;;;;;;16.35;5.60;;;9.90;99.90;;;;;;4996805;28;90738;-34
2023/01/05 10:19:41;;;;;;;12.95;5.28;;;9.90;99.90;;;;;;4996533;28;89848;-35
2023/01/05 10:22:17;;;;;;;17.08;5.15;;;9.90;99.90;;;;;;4997452;28;89822;-34
2023/01/05 10:24:52;;;;;;;13.73;4.47;;;9.90;99.90;;;;;;4995434;28;89193;-35
2023/01/05 10:27:47;;;;;;;7.60;4.57;;;9.90;99.90;;;;;;4996887;28;90544;-32
2023/01/05 10:30:20;;;;;;;18.20;4.22;;;9.90;99.90;;;;;;4970140;28;89695;-33
2023/01/05 10:32:57;;;;;;;12.88;4.28;;;10.00;99.90;;;;;;4996935;28;89296;-32
2023/01/05 10:35:50;;;;;;;10.70;4.60;;;10.00;99.90;;;;;;4996068;28;88899;-32
2023/01/05 10:38:33;;;;;;;22.02;5.93;;;10.10;99.90;;;;;;4992447;28;90163;-33
2023/01/05 10:41:22;;;;;;;14.48;6.38;;;10.00;99.90;;;;;;4996017;28;89561;-33
2023/01/05 10:44:12;;;;;;;19.10;5.38;;;10.00;99.90;;;;;;4996466;28;88850;-34
2023/01/05 10:46:41;;;;;;;18.02;4.88;;;10.00;99.90;;;;;;4996390;28;89165;-35
2023/01/05 10:49:07;;;;;;;11.25;3.95;;;10.00;99.90;;;;;;4995942;28;90319;-34
2023/01/05 10:51:34;;;;;;;16.52;5.03;;;10.00;99.90;;;;;;4996755;28;89551;-32
2023/01/05 10:54:01;;;;;;;20.00;5.25;;;10.00;99.90;;;;;;4995288;28;89019;-33
2023/01/05 10:56:28;;;;;;;15.40;4.38;;;10.00;99.90;;;;;;4995662;28;89112;-34
2023/01/05 10:59:11;;;;;;;7.28;3.60;;;10.10;99.90;;;;;;4996942;28;90530;-32
2023/01/05 11:01:40;;;;;;;24.88;5.28;;;10.10;99.90;;;;;;4994252;28;90734;-32
2023/01/05 11:04:14;;;;;;;9.82;4.50;;;10.10;99.90;;;;;;4994933;28;89502;-32
2023/01/05 11:06:40;;;;;;;12.77;5.00;;;10.10;99.90;;;;;;4985479;28;88505;-32
2023/01/05 11:09:19;;;;;;;9.82;3.95;;;10.10;99.90;;;;;;4995493;28;90373;-35
2023/01/05 11:12:01;;;;;;;13.85;4.43;;;10.10;99.90;;;;;;4996501;28;89779;-34
2023/01/05 11:14:31;;;;;;;9.68;4.35;;;10.10;99.90;;;;;;4995760;28;89677;-35
2023/01/05 11:17:02;;;;;;;13.60;4.68;;;10.10;99.90;;;;;;4996261;28;90813;-32
2023/01/05 11:19:35;;;;;;;11.05;4.00;;;10.20;99.90;;;;;;4995618;28;90550;-35
2023/01/05 11:22:01;;;;;;;15.18;4.03;;;10.20;99.90;;;;;;4995269;28;90109;-33
2023/01/05 11:24:30;;;;;;;11.25;3.53;;;10.20;99.90;;;;;;4995042;28;89312;-35
2023/01/05 11:27:02;;;;;;;11.10;3.47;;;10.20;99.90;;;;;;4994560;28;90410;-34
2023/01/05 11:29:28;;;;;;;14.93;4.57;;;10.20;99.90;;;;;;4996379;28;89309;-33
2023/01/05 11:31:56;;;;;;;10.98;3.38;;;10.20;99.90;;;;;;4995103;28;89627;-32
2023/01/05 11:34:44;;;;;;;9.40;3.03;;;10.20;99.90;;;;;;4995434;28;90272;-33
2023/01/05 11:37:22;;;;;;;15.77;4.40;;;10.20;99.90;;;;;;4996010;28;90369;-33
2023/01/05 11:39:58;;;;;;;12.75;4.25;;;10.20;99.90;;;;;;4999043;28;90224;-33
2023/01/05 11:42:24;;;;;;;7.72;3.22;;;10.20;99.90;;;;;;4990492;28;89401;-32
2023/01/05 11:45:15;;;;;;;10.32;2.42;;;10.20;99.90;;;;;;4998071;28;90420;-33
2023/01/05 11:47:48;;;;;;;10.25;4.15;;;10.20;99.90;;;;;;4999548;28;89616;-32
2023/01/05 11:50:18;;;;;;;8.55;2.90;;;10.20;99.90;;;;;;4999423;28;90286;-33
2023/01/05 11:52:46;;;;;;;4.90;3.05;;;10.20;99.90;;;;;;4999087;28;91699;-32
2023/01/05 11:55:24;;;;;;;10.52;3.17;;;10.20;99.90;;;;;;4999064;28;90159;-36
2023/01/05 11:57:51;;;;;;;8.17;2.63;;;10.20;99.90;;;;;;4998677;28;88563;-34
2023/01/05 12:00:26;;;;;;;18.98;4.75;;;10.20;99.90;;;;;;4999068;28;91468;-34
2023/01/05 12:03:16;;;;;;;10.82;2.85;;;10.10;99.90;;;;;;4998812;28;89739;-35
2023/01/05 12:05:55;;;;;;;10.35;4.10;;;10.20;99.90;;;;;;4998365;28;89885;-32
2023/01/05 12:08:29;;;;;;;;;;;10.20;99.90;;;;;;4999811;28;89804;-32
2023/01/05 12:11:11;;;;;;;12.55;3.95;;;10.20;99.90;;;;;;5000836;28;89787;-33
2023/01/05 12:13:59;;;;;;;19.73;4.32;;;10.10;99.90;;;;;;4986050;28;89423;-32
2023/01/05 12:16:44;;;;;;;13.67;4.47;;;10.10;99.90;;;;;;4998303;28;89658;-33
2023/01/05 12:19:15;;;;;;;12.13;3.70;;;10.10;99.90;;;;;;4998969;28;89022;-32
2023/01/05 12:22:02;;;;;;;15.90;4.55;;;10.10;99.90;;;;;;4998731;28;90343;-34
2023/01/05 12:24:35;;;;;;;12.88;4.78;;;10.10;99.90;;;;;;4993917;28;89830;-34
2023/01/05 12:27:31;;;;;;;15.10;4.65;;;10.10;99.90;;;;;;4999118;28;91230;-35
2023/01/05 12:30:31;;;;;;;16.77;5.10;;;10.10;99.90;;;;;;4999469;28;90298;-32
2023/01/05 12:33:22;;;;;;;10.93;4.07;;;10.10;99.90;;;;;;4997115;28;89823;-34
2023/01/05 12:35:56;;;;;;;12.68;3.97;;;10.10;99.90;;;;;;4990543;28;89835;-32
2023/01/05 12:38:42;;;;;;;9.88;4.53;;;10.10;99.90;;;;;;4999137;28;88957;-32
2023/01/05 12:41:13;;;;;;;8.18;3.60;;;10.10;99.90;;;;;;4987666;28;89054;-32
2023/01/05 12:44:16;;;;;;;14.80;5.85;;;10.20;99.90;;;;;;4997876;28;89829;-33
2023/01/05 12:47:13;;;;;;;10.73;3.65;;;10.10;99.90;;;;;;4996662;28;90109;-33
2023/01/05 12:49:45;;;;;;;13.57;4.00;;;10.20;99.90;;;;;;4990948;28;90322;-34
2023/01/05 12:52:22;;;;;;;9.48;4.40;;;10.20;99.90;;;;;;4998567;28;89277;-34
2023/01/05 12:55:18;;;;;;;10.77;4.00;;;10.20;99.90;;;;;;4997786;28;90593;-33
2023/01/05 12:57:56;;;;;;;17.20;4.47;;;10.20;99.90;;;;;;4997141;28;90050;-32
2023/01/05 13:00:24;;;;;;;13.23;4.07;;;10.20;99.90;;;;;;4998030;28;88827;-32
2023/01/05 13:03:00;;;;;;;19.60;4.35;;;10.20;99.90;;;;;;4998331;28;90005;-32
2023/01/05 13:05:31;;;;;;;18.90;4.25;;;10.20;99.90;;;;;;4998529;28;90719;-34
2023/01/05 13:08:16;;;;;;;11.70;4.45;;;10.20;99.90;;;;;;4992226;28;89712;-35
2023/01/05 13:10:47;;;;;;;12.23;4.28;;;10.20;99.90;;;;;;4998016;28;89669;-33
2023/01/05 13:13:24;;;;;;;7.68;3.88;;;10.20;99.90;;;;;;4997162;28;90893;-34
2023/01/05 13:16:15;;;;;;;15.63;4.20;;;10.20;99.90;;;;;;4997308;28;90628;-33
2023/01/05 13:18:47;;;;;;;16.38;5.15;;;10.20;99.90;;;;;;4999054;28;90249;-33
2023/01/05 13:21:15;;;;;;;11.35;4.13;;;10.20;99.90;;;;;;4998165;28;88457;-34
2023/01/05 13:23:44;;;;;;;11.60;3.92;;;10.20;99.90;;;;;;4998474;28;88514;-32
2023/01/05 13:26:14;;;;;;;10.80;4.95;;;10.20;99.90;;;;;;4997645;28;90691;-33
2023/01/05 13:28:40;;;;;;;15.60;4.57;;;10.30;99.90;;;;;;4998291;28;89580;-34
2023/01/05 13:31:15;;;;;;;19.27;5.20;;;10.20;99.90;;;;;;4997678;28;89812;-33
2023/01/05 13:33:56;;;;;;;19.35;5.78;;;10.20;99.90;;;;;;4998733;28;89280;-33
2023/01/05 13:36:42;;;;;;;13.07;4.47;;;10.20;99.90;;;;;;4997509;28;90263;-32